createdAt,value
2019-05-28T00:00:07.138Z,5.37
2019-05-28T00:02:38.693Z,5.37
2019-05-28T00:05:10.674Z,5.13
2019-05-28T00:07:40.666Z,5.50
2019-05-28T00:10:11.331Z,5.73
2019-05-28T00:12:41.352Z,5.93
2019-05-28T00:15:13.761Z,4.53
2019-05-28T00:17:43.735Z,8.80
2019-05-28T00:20:14.578Z,5.70
2019-05-28T00:22:44.676Z,6.50
2019-05-28T00:25:15.231Z,10.87
2019-05-28T00:27:45.332Z,3.60
2019-05-28T00:30:20.346Z,6.20
2019-05-28T00:32:47.801Z,3.53
2019-05-28T00:35:18.115Z,3.03
2019-05-28T00:37:48.152Z,4.87
2019-05-28T00:40:18.365Z,2.73
2019-05-28T00:42:48.515Z,6.97
2019-05-28T00:45:19.029Z,8.77
2019-05-28T00:47:49.015Z,5.60
2019-05-28T00:50:19.529Z,5.53
2019-05-28T00:52:49.586Z,5.70
2019-05-28T00:55:20.090Z,5.03
2019-05-28T00:57:51.653Z,5.47
2019-05-28T01:00:41.526Z,5.47
2019-05-28T01:03:11.521Z,6.17
2019-05-28T01:05:41.650Z,6.40
2019-05-28T01:08:11.794Z,4.20
2019-05-28T01:10:42.215Z,4.30
2019-05-28T01:13:12.256Z,4.00
2019-05-28T01:15:42.493Z,4.30
2019-05-28T01:18:12.489Z,7.27
2019-05-28T01:20:42.458Z,5.40
2019-05-28T01:23:12.512Z,3.90
2019-05-28T01:25:42.631Z,9.03
2019-05-28T01:28:12.616Z,6.50
2019-05-28T01:30:54.811Z,5.07
2019-05-28T01:33:16.492Z,7.07
2019-05-28T01:35:46.492Z,5.37
2019-05-28T01:38:16.471Z,7.43
2019-05-28T01:40:46.474Z,11.07
2019-05-28T01:43:16.452Z,6.50
2019-05-28T01:45:46.447Z,7.23
2019-05-28T01:48:17.419Z,10.00
2019-05-28T01:50:47.493Z,6.67
2019-05-28T01:53:17.471Z,7.90
2019-05-28T01:55:47.461Z,3.10
2019-05-28T01:58:17.477Z,8.40
2019-05-28T02:00:47.521Z,5.07
2019-05-28T02:03:17.604Z,6.87
2019-05-28T02:05:47.573Z,8.60
2019-05-28T02:08:17.561Z,3.27
2019-05-28T02:10:47.570Z,5.17
2019-05-28T02:13:17.562Z,8.37
2019-05-28T02:15:47.544Z,5.23
2019-05-28T02:18:17.534Z,6.03
2019-05-28T02:20:48.473Z,5.00
2019-05-28T02:23:18.489Z,6.33
2019-05-28T02:25:48.468Z,3.87
2019-05-28T02:28:18.527Z,4.20
2019-05-28T02:30:48.502Z,8.27
2019-05-28T02:33:18.542Z,10.03
2019-05-28T02:35:50.122Z,13.47
2019-05-28T02:38:20.171Z,13.00
2019-05-28T02:40:50.227Z,10.00
2019-05-28T02:43:20.358Z,13.17
2019-05-28T02:45:50.389Z,7.30
2019-05-28T02:48:20.428Z,7.93
2019-05-28T02:50:59.211Z,8.30
2019-05-28T02:53:31.015Z,7.83
2019-05-28T02:56:01.116Z,6.13
2019-05-28T02:58:35.879Z,13.77
2019-05-28T03:01:07.204Z,9.87
2019-05-28T03:03:37.312Z,8.73
2019-05-28T03:06:07.608Z,11.67
2019-05-28T03:08:37.735Z,12.20
2019-05-28T03:11:07.851Z,12.60
2019-05-28T03:13:37.854Z,10.57
2019-05-28T03:16:09.779Z,8.83
2019-05-28T03:18:40.837Z,7.67
2019-05-28T03:21:11.413Z,10.30
2019-05-28T03:23:42.630Z,8.40
2019-05-28T03:26:12.662Z,9.90
2019-05-28T03:28:43.079Z,10.80
2019-05-28T03:31:13.184Z,8.40
2019-05-28T03:33:44.486Z,13.63
2019-05-28T03:36:16.588Z,8.37
2019-05-28T03:38:46.941Z,11.40
2019-05-28T03:41:16.952Z,13.37
2019-05-28T03:43:48.012Z,11.93
2019-05-28T03:46:18.007Z,11.77
2019-05-28T03:48:48.017Z,13.93
2019-05-28T03:51:18.060Z,7.93
2019-05-28T03:53:48.035Z,9.83
2019-05-28T03:56:19.132Z,9.63
2019-05-28T03:58:49.125Z,12.23
2019-05-28T04:01:19.121Z,11.20
2019-05-28T04:03:49.100Z,11.17
2019-05-28T04:06:19.107Z,9.20
2019-05-28T04:08:49.185Z,16.57
2019-05-28T04:11:19.196Z,13.47
2019-05-28T04:13:49.208Z,15.80
2019-05-28T04:16:19.176Z,14.27
2019-05-28T04:18:49.257Z,23.07
2019-05-28T04:21:19.309Z,14.40
2019-05-28T04:23:49.297Z,16.57
2019-05-28T04:26:19.287Z,19.77
2019-05-28T04:28:49.272Z,17.13
2019-05-28T04:31:19.314Z,20.10
2019-05-28T04:33:49.314Z,17.80
2019-05-28T04:36:19.373Z,21.20
2019-05-28T04:38:49.345Z,19.40
2019-05-28T04:41:19.341Z,19.97
2019-05-28T04:43:49.355Z,26.47
2019-05-28T04:46:19.331Z,20.90
2019-05-28T04:48:49.360Z,16.50
2019-05-28T04:51:19.415Z,23.00
2019-05-28T04:53:49.431Z,18.43
2019-05-28T04:56:19.433Z,16.27
2019-05-28T04:58:49.432Z,14.63
2019-05-28T05:01:19.416Z,21.63
2019-05-28T05:03:49.392Z,14.47
2019-05-28T05:06:19.402Z,16.70
2019-05-28T05:08:49.396Z,20.80
2019-05-28T05:11:19.425Z,19.47
2019-05-28T05:13:49.416Z,17.77
2019-05-28T05:16:19.407Z,21.23
2019-05-28T05:18:50.547Z,21.33
2019-05-28T05:21:20.526Z,15.87
2019-05-28T05:23:50.516Z,18.67
2019-05-28T05:26:20.523Z,16.17
2019-05-28T05:28:50.574Z,13.70
2019-05-28T05:31:20.554Z,13.67
2019-05-28T05:33:50.618Z,14.20
2019-05-28T05:36:20.702Z,14.57
2019-05-28T05:38:50.677Z,16.13
2019-05-28T05:41:20.752Z,16.83
2019-05-28T05:43:50.731Z,14.10
2019-05-28T05:46:20.696Z,13.53
2019-05-28T05:48:50.818Z,13.77
2019-05-28T05:51:20.763Z,15.23
2019-05-28T05:53:50.773Z,10.77
2019-05-28T05:56:20.752Z,17.13
2019-05-28T05:58:50.787Z,10.47
2019-05-28T06:01:20.776Z,13.67
2019-05-28T06:03:50.817Z,11.23
2019-05-28T06:06:20.795Z,16.50
2019-05-28T06:08:50.796Z,16.37
2019-05-28T06:11:20.978Z,13.20
2019-05-28T06:13:51.092Z,14.47
2019-05-28T06:16:21.193Z,14.30
2019-05-28T06:18:52.038Z,13.43
2019-05-28T06:21:22.069Z,12.70
2019-05-28T06:23:52.126Z,13.93
2019-05-28T06:26:22.192Z,12.83
2019-05-28T06:28:52.245Z,12.17
2019-05-28T06:31:22.253Z,11.57
2019-05-28T06:33:56.608Z,14.97
2019-05-28T06:36:24.007Z,11.17
2019-05-28T06:38:54.065Z,9.43
2019-05-28T06:41:24.061Z,14.17
2019-05-28T06:43:54.108Z,13.37
2019-05-28T06:46:24.109Z,14.33
2019-05-28T06:48:54.215Z,10.63
2019-05-28T06:51:24.202Z,10.73
2019-05-28T06:53:54.246Z,17.03
2019-05-28T06:56:24.287Z,8.87
2019-05-28T06:58:54.300Z,12.23
2019-05-28T07:01:24.285Z,8.63
2019-05-28T07:03:54.309Z,11.60
2019-05-28T07:06:24.304Z,13.97
2019-05-28T07:08:54.318Z,18.03
2019-05-28T07:11:24.336Z,8.90
2019-05-28T07:13:54.316Z,21.77
2019-05-28T07:16:24.336Z,13.13
2019-05-28T07:18:54.413Z,5.43
2019-05-28T07:21:24.393Z,5.90
2019-05-28T07:23:54.394Z,10.87
2019-05-28T07:26:24.419Z,9.63
2019-05-28T07:28:54.439Z,5.77
2019-05-28T07:31:24.516Z,10.07
2019-05-28T07:33:54.524Z,7.77
2019-05-28T07:36:24.582Z,11.30
2019-05-28T07:38:54.659Z,14.03
2019-05-28T07:41:24.700Z,8.27
2019-05-28T07:43:54.701Z,8.70
2019-05-28T07:46:24.898Z,12.00
2019-05-28T07:48:54.948Z,7.00
2019-05-28T07:51:24.946Z,9.70
2019-05-28T07:53:54.965Z,7.73
2019-05-28T07:56:24.935Z,6.13
2019-05-28T07:58:54.938Z,10.03
2019-05-28T08:01:24.948Z,10.67
2019-05-28T08:03:55.078Z,8.87
2019-05-28T08:06:25.089Z,6.03
2019-05-28T08:08:55.278Z,7.67
2019-05-28T08:11:25.532Z,6.13
2019-05-28T08:13:55.573Z,6.20
2019-05-28T08:16:25.710Z,7.07
2019-05-28T08:18:55.803Z,8.30
2019-05-28T08:21:26.063Z,7.87
2019-05-28T08:23:56.081Z,8.73
2019-05-28T08:26:26.081Z,5.10
2019-05-28T08:28:59.424Z,9.90
2019-05-28T08:31:27.761Z,7.87
2019-05-28T08:33:57.810Z,10.80
2019-05-28T08:36:27.867Z,9.23
2019-05-28T08:38:57.873Z,7.50
2019-05-28T08:41:27.870Z,9.17
2019-05-28T08:43:57.849Z,6.30
2019-05-28T08:46:27.835Z,9.97
2019-05-28T08:48:57.849Z,5.10
2019-05-28T08:51:27.816Z,7.73
2019-05-28T08:53:57.857Z,9.27
2019-05-28T08:56:27.853Z,6.50
2019-05-28T08:58:57.948Z,14.67
2019-05-28T09:01:28.586Z,8.73
2019-05-28T09:03:58.643Z,10.90
2019-05-28T09:06:28.806Z,8.73
2019-05-28T09:08:58.852Z,6.63
2019-05-28T09:11:28.855Z,10.67
2019-05-28T09:13:58.868Z,6.77
2019-05-28T09:16:28.852Z,6.20
2019-05-28T09:18:59.969Z,6.73
2019-05-28T09:21:29.973Z,5.37
2019-05-28T09:23:59.969Z,10.80
2019-05-28T09:26:30.107Z,11.40
2019-05-28T09:29:00.159Z,7.10
2019-05-28T09:31:30.178Z,5.83
2019-05-28T09:34:01.241Z,9.37
2019-05-28T09:36:31.263Z,14.13
2019-05-28T09:39:01.256Z,6.80
2019-05-28T09:41:32.890Z,7.47
2019-05-28T09:44:03.069Z,41.87
2019-05-28T09:46:33.145Z,7.57
2019-05-28T09:49:03.225Z,10.17
2019-05-28T09:51:33.280Z,5.60
2019-05-28T09:54:04.896Z,7.20
2019-05-28T09:56:35.016Z,5.97
2019-05-28T09:59:06.200Z,7.97
2019-05-28T10:01:37.339Z,7.33
2019-05-28T10:04:07.800Z,8.07
2019-05-28T10:06:41.045Z,5.17
2019-05-28T10:09:09.616Z,6.07
2019-05-28T10:11:39.601Z,5.03
2019-05-28T10:14:10.217Z,6.40
2019-05-28T10:16:40.220Z,7.57
2019-05-28T10:19:10.279Z,6.47
2019-05-28T10:21:41.787Z,13.20
2019-05-28T10:24:11.991Z,8.47
2019-05-28T10:26:41.985Z,8.50
2019-05-28T10:29:13.790Z,7.60
2019-05-28T10:31:43.779Z,10.47
2019-05-28T10:34:13.870Z,7.10
2019-05-28T10:36:43.917Z,5.67
2019-05-28T10:39:13.918Z,8.03
2019-05-28T10:41:43.965Z,6.43
2019-05-28T10:44:13.933Z,9.60
2019-05-28T10:46:44.149Z,9.97
2019-05-28T10:49:14.204Z,8.40
2019-05-28T10:51:44.290Z,7.07
2019-05-28T10:54:14.288Z,8.20
2019-05-28T10:56:44.412Z,9.07
2019-05-28T10:59:15.448Z,4.53
2019-05-28T11:01:45.507Z,7.10
2019-05-28T11:04:15.499Z,3.53
2019-05-28T11:06:51.860Z,5.80
2019-05-28T11:09:17.158Z,6.77
2019-05-28T11:11:47.179Z,6.43
2019-05-28T11:14:17.291Z,8.70
2019-05-28T11:16:47.346Z,5.77
2019-05-28T11:19:17.347Z,4.00
2019-05-28T11:21:47.353Z,3.93
2019-05-28T11:24:17.417Z,4.13
2019-05-28T11:26:47.415Z,6.97
2019-05-28T11:29:17.578Z,2.27
2019-05-28T11:31:47.589Z,1.77
2019-05-28T11:34:17.614Z,3.53
2019-05-28T11:36:47.698Z,1.60
2019-05-28T11:39:17.725Z,1.77
2019-05-28T11:41:47.716Z,3.13
2019-05-28T11:44:17.818Z,1.50
2019-05-28T11:46:47.809Z,0.90
2019-05-28T11:49:17.845Z,1.70
2019-05-28T11:51:47.817Z,2.80
2019-05-28T11:54:17.858Z,3.97
2019-05-28T11:56:48.966Z,3.53
2019-05-28T11:59:18.947Z,1.43
2019-05-28T12:01:48.924Z,2.90
2019-05-28T12:04:18.964Z,3.33
2019-05-28T12:06:48.933Z,3.10
2019-05-28T12:09:18.974Z,2.13
2019-05-28T12:11:48.944Z,3.10
2019-05-28T12:14:19.282Z,1.90
2019-05-28T12:16:49.263Z,1.53
2019-05-28T12:19:19.279Z,2.13
2019-05-28T12:21:49.346Z,2.27
2019-05-28T12:24:22.130Z,3.50
2019-05-28T12:26:52.322Z,1.50
2019-05-28T12:29:23.567Z,1.77
2019-05-28T12:31:53.714Z,2.60
2019-05-28T12:34:23.979Z,3.60
2019-05-28T12:36:53.969Z,2.47
2019-05-28T12:39:23.961Z,3.20
2019-05-28T12:42:03.128Z,1.90
2019-05-28T12:44:41.136Z,2.70
2019-05-28T12:46:57.486Z,1.53
2019-05-28T12:49:27.517Z,3.43
2019-05-28T12:51:57.490Z,1.73
2019-05-28T12:54:27.489Z,2.20
2019-05-28T12:56:58.219Z,1.73
2019-05-28T12:59:28.260Z,2.20
2019-05-28T13:01:58.354Z,5.63
2019-05-28T13:04:28.411Z,3.73
2019-05-28T13:06:58.484Z,2.73
2019-05-28T13:09:28.459Z,6.03
2019-05-28T13:11:58.507Z,7.20
2019-05-28T13:14:28.555Z,5.33
2019-05-28T13:17:04.428Z,8.10
2019-05-28T13:19:34.686Z,2.83
2019-05-28T13:22:04.809Z,2.67
2019-05-28T13:24:34.790Z,3.50
2019-05-28T13:27:17.729Z,1.90
2019-05-28T13:29:37.033Z,2.33
2019-05-28T13:32:08.664Z,1.40
2019-05-28T13:34:38.964Z,2.57
2019-05-28T13:37:08.933Z,2.07
2019-05-28T13:39:38.973Z,3.43
2019-05-28T13:42:09.912Z,1.47
2019-05-28T13:44:40.033Z,2.90
2019-05-28T13:47:10.163Z,2.33
2019-05-28T13:49:40.172Z,10.93
2019-05-28T13:52:12.334Z,6.50
2019-05-28T13:54:41.930Z,8.30
2019-05-28T13:57:11.965Z,6.37
2019-05-28T13:59:42.047Z,7.80
2019-05-28T14:02:12.065Z,5.37
2019-05-28T14:04:42.115Z,4.57
2019-05-28T14:07:12.195Z,3.10
2019-05-28T14:09:42.193Z,1.57
2019-05-28T14:12:12.173Z,2.77
2019-05-28T14:14:42.243Z,3.33
2019-05-28T14:17:13.189Z,5.47
2019-05-28T14:19:43.236Z,6.30
2019-05-28T14:22:13.245Z,5.00
2019-05-28T14:24:43.351Z,4.67
2019-05-28T14:27:13.317Z,1.93
2019-05-28T14:29:43.351Z,3.30
2019-05-28T14:32:13.409Z,2.13
2019-05-28T14:34:43.448Z,1.33
2019-05-28T14:37:14.437Z,1.93
2019-05-28T14:39:44.391Z,2.13
2019-05-28T14:42:17.394Z,2.13
2019-05-28T14:44:46.170Z,2.13
2019-05-28T14:47:16.266Z,4.60
2019-05-28T14:49:46.253Z,2.53
2019-05-28T14:52:16.229Z,3.63
2019-05-28T14:54:46.219Z,2.13
2019-05-28T14:57:16.303Z,3.33
2019-05-28T14:59:46.277Z,2.80
2019-05-28T15:02:16.274Z,3.60
2019-05-28T15:04:46.274Z,1.27
2019-05-28T15:07:16.334Z,2.57
2019-05-28T15:09:46.383Z,2.47
2019-05-28T15:12:16.409Z,2.60
2019-05-28T15:14:46.384Z,1.90
2019-05-28T15:17:16.400Z,1.90
2019-05-28T15:19:46.524Z,2.47
2019-05-28T15:22:16.560Z,1.70
2019-05-28T15:24:49.843Z,1.57
2019-05-28T15:27:19.243Z,3.93
2019-05-28T15:29:49.262Z,6.60
2019-05-28T15:32:19.349Z,2.60
2019-05-28T15:34:49.349Z,1.17
2019-05-28T15:37:19.500Z,1.30
2019-05-28T15:39:49.505Z,2.03
2019-05-28T15:42:20.750Z,1.20
2019-05-28T15:44:50.888Z,1.60
2019-05-28T15:47:20.977Z,2.17
2019-05-28T15:49:50.956Z,2.53
2019-05-28T15:52:20.994Z,4.63
2019-05-28T15:54:51.001Z,4.83
2019-05-28T15:57:21.369Z,3.57
2019-05-28T15:59:51.400Z,0.90
2019-05-28T16:02:21.535Z,1.43
2019-05-28T16:04:51.518Z,3.10
2019-05-28T16:07:21.511Z,2.33
2019-05-28T16:09:55.933Z,1.73
2019-05-28T16:12:23.225Z,2.27
2019-05-28T16:14:53.214Z,1.73
2019-05-28T16:17:23.264Z,2.67
2019-05-28T16:19:53.431Z,4.37
2019-05-28T16:22:23.522Z,2.40
2019-05-28T16:24:53.552Z,3.00
2019-05-28T16:27:23.538Z,3.10
2019-05-28T16:29:53.582Z,1.60
2019-05-28T16:32:28.644Z,3.67
2019-05-28T16:34:55.379Z,2.70
2019-05-28T16:37:25.415Z,2.43
2019-05-28T16:40:13.180Z,4.00
2019-05-28T16:42:27.170Z,2.23
2019-05-28T16:44:57.291Z,1.80
2019-05-28T16:47:27.280Z,1.17
2019-05-28T16:49:57.329Z,3.33
2019-05-28T16:52:27.354Z,1.53
2019-05-28T16:54:57.373Z,2.10
2019-05-28T16:57:28.534Z,2.03
2019-05-28T16:59:58.594Z,2.77
2019-05-28T17:02:28.636Z,3.67
2019-05-28T17:04:59.780Z,1.50
2019-05-28T17:07:29.991Z,2.67
2019-05-28T17:09:59.993Z,2.10
2019-05-28T17:12:30.049Z,2.53
2019-05-28T17:15:00.025Z,1.50
2019-05-28T17:17:30.065Z,3.17
2019-05-28T17:20:00.119Z,3.70
2019-05-28T17:22:30.346Z,1.90
2019-05-28T17:25:00.401Z,2.70
2019-05-28T17:27:30.963Z,2.77
2019-05-28T17:30:16.627Z,1.40
2019-05-28T17:32:34.169Z,7.17
2019-05-28T17:35:06.248Z,3.62
2019-05-28T17:37:36.530Z,3.70
2019-05-28T17:40:07.976Z,1.43
2019-05-28T17:42:37.964Z,2.10
2019-05-28T17:45:08.942Z,2.23
2019-05-28T17:47:43.886Z,2.47
2019-05-28T17:50:10.953Z,2.97
2019-05-28T17:52:41.001Z,2.33
2019-05-28T17:55:11.068Z,3.67
2019-05-28T17:57:41.185Z,7.10
2019-05-28T18:00:12.506Z,2.60
2019-05-28T18:02:42.579Z,6.10
2019-05-28T18:05:12.861Z,3.50
2019-05-28T18:07:42.917Z,2.80
2019-05-28T18:10:13.620Z,7.10
2019-05-28T18:12:43.675Z,4.37
2019-05-28T18:15:13.813Z,2.70
2019-05-28T18:17:43.928Z,2.93
2019-05-28T18:20:15.221Z,5.17
2019-05-28T18:22:45.278Z,3.07
2019-05-28T18:25:15.402Z,6.00
2019-05-28T18:27:45.447Z,2.83
2019-05-28T18:30:16.055Z,5.83
2019-05-28T18:32:46.107Z,3.77
2019-05-28T18:35:16.171Z,6.50
2019-05-28T18:37:46.268Z,7.87
2019-05-28T18:40:16.902Z,5.80
2019-05-28T18:42:46.960Z,6.70
2019-05-28T18:45:17.033Z,8.10
2019-05-28T18:47:47.056Z,6.37
2019-05-28T18:50:17.406Z,4.80
2019-05-28T18:52:47.438Z,3.43
2019-05-28T18:55:17.557Z,4.77
2019-05-28T18:57:50.784Z,7.07
2019-05-28T19:00:19.740Z,4.10
2019-05-28T19:02:49.837Z,5.57
2019-05-28T19:05:20.061Z,5.13
2019-05-28T19:07:50.054Z,8.20
2019-05-28T19:10:20.606Z,5.80
2019-05-28T19:12:50.594Z,6.73
2019-05-28T19:15:21.226Z,9.60
2019-05-28T19:30:11.004Z,11.23
2019-05-28T19:32:41.257Z,10.10
2019-05-28T19:35:11.510Z,7.07
2019-05-28T19:37:41.955Z,8.30
2019-05-28T19:40:12.189Z,6.37
2019-05-28T19:42:42.919Z,8.33
2019-05-28T19:45:13.104Z,10.43
2019-05-28T19:47:43.246Z,7.63
2019-05-28T19:50:13.378Z,7.47
2019-05-28T19:52:43.416Z,7.63
2019-05-28T19:55:13.735Z,8.73
2019-05-28T19:57:43.853Z,8.43
2019-05-28T20:00:14.478Z,12.43
2019-05-28T20:02:44.580Z,13.37
2019-05-28T20:05:15.253Z,11.00
2019-05-28T20:07:45.435Z,5.90
2019-05-28T20:10:17.127Z,6.90
2019-05-28T20:12:47.254Z,9.37
2019-05-28T20:15:19.977Z,12.23
2019-05-28T20:17:50.289Z,8.13
2019-05-28T20:20:20.976Z,10.50
2019-05-28T20:22:51.938Z,7.50
2019-05-28T20:25:22.188Z,14.33
2019-05-28T20:27:52.224Z,8.13
2019-05-28T20:30:23.809Z,17.73
2019-05-28T20:32:55.117Z,11.33
2019-05-28T20:35:26.309Z,8.83
2019-05-28T20:37:56.359Z,7.87
2019-05-28T20:40:26.406Z,13.50
2019-05-28T20:42:56.480Z,18.07
2019-05-28T20:45:26.519Z,9.60
2019-05-28T20:47:56.555Z,9.27
2019-05-28T20:50:26.595Z,12.93
2019-05-28T20:52:56.623Z,8.50
2019-05-28T20:55:26.625Z,12.28
2019-05-28T20:57:57.405Z,11.83
2019-05-28T21:00:27.492Z,14.50
2019-05-28T21:02:57.938Z,11.07
2019-05-28T21:05:28.057Z,15.23
2019-05-28T21:07:58.379Z,9.57
2019-05-28T21:10:28.554Z,7.63
2019-05-28T21:12:58.967Z,11.67
2019-05-28T21:15:29.232Z,13.53
2019-05-28T21:18:12.151Z,8.90
2019-05-28T21:20:43.456Z,9.80
2019-05-28T21:23:13.475Z,13.23
2019-05-28T21:25:43.542Z,15.87
2019-05-28T21:28:13.559Z,9.60
2019-05-28T21:30:43.549Z,12.43
2019-05-28T21:33:13.539Z,9.37
2019-05-28T21:35:43.570Z,11.13
2019-05-28T21:38:13.541Z,8.80
2019-05-28T21:40:43.596Z,11.90
2019-05-28T21:43:13.579Z,7.80
2019-05-28T21:45:43.595Z,7.53
2019-05-28T21:48:13.570Z,8.73
2019-05-28T21:50:43.534Z,7.70
2019-05-28T21:53:13.648Z,9.73
2019-05-28T21:55:43.690Z,8.20
2019-05-28T21:58:13.672Z,7.67
2019-05-28T22:00:53.668Z,8.43
2019-05-28T22:03:23.882Z,5.80
2019-05-28T22:05:55.189Z,8.97
2019-05-28T22:08:25.393Z,5.57
2019-05-28T22:10:55.625Z,5.70
2019-05-28T22:13:25.748Z,5.80
2019-05-28T22:15:56.079Z,5.30
2019-05-28T22:18:26.162Z,4.77
2019-05-28T22:20:56.687Z,4.70
2019-05-28T22:23:26.861Z,4.93
2019-05-28T22:25:57.033Z,3.77
2019-05-28T22:28:28.208Z,6.23
2019-05-28T22:30:59.484Z,7.57
2019-05-28T22:33:29.921Z,7.80
2019-05-28T22:36:01.233Z,2.80
2019-05-28T22:38:31.440Z,4.80
2019-05-28T22:41:02.423Z,4.60
2019-05-28T22:43:32.659Z,4.67
2019-05-28T22:46:03.293Z,4.77
2019-05-28T22:48:34.539Z,4.47
2019-05-28T22:51:05.665Z,3.20
2019-05-28T22:53:35.962Z,2.60
2019-05-28T22:56:06.894Z,4.40
2019-05-28T22:58:37.426Z,3.70
2019-05-28T23:01:08.681Z,2.10
2019-05-28T23:03:38.795Z,1.70
2019-05-28T23:06:09.312Z,1.20
2019-05-28T23:08:39.383Z,2.13
2019-05-28T23:11:09.872Z,1.20
2019-05-28T23:13:46.718Z,2.37
2019-05-28T23:16:12.884Z,2.37
2019-05-28T23:18:48.886Z,2.23
2019-05-28T23:21:28.535Z,4.53
2019-05-28T23:24:00.993Z,2.50
2019-05-28T23:26:31.898Z,5.03
2019-05-28T23:29:01.948Z,1.40
2019-05-28T23:31:31.932Z,1.63
2019-05-28T23:34:02.267Z,4.07
2019-05-28T23:36:32.485Z,2.73
2019-05-28T23:39:02.857Z,1.93
2019-05-28T23:41:32.926Z,2.20
2019-05-28T23:44:03.857Z,2.03
2019-05-28T23:46:34.955Z,1.60
2019-05-28T23:49:06.031Z,1.73
2019-05-28T23:51:36.253Z,1.93
2019-05-28T23:54:06.222Z,1.93
2019-05-28T23:56:36.220Z,2.20
2019-05-28T23:59:06.279Z,2.20
